sensor_id;sensor_type;location;lat;lon;timestamp;temperature;humidity
23783;DHT22;12071;50.850;4.446;2022-08-16T00:01:16;22.20;99.90
23783;DHT22;12071;50.850;4.446;2022-08-16T00:03:42;22.00;99.90
23783;DHT22;12071;50.850;4.446;2022-08-16T00:06:08;22.00;99.90
23783;DHT22;12071;50.850;4.446;2022-08-16T00:08:33;22.20;99.90
23783;DHT22;12071;50.850;4.446;2022-08-16T00:10:59;22.20;99.90
23783;DHT22;12071;50.850;4.446;2022-08-16T00:13:25;22.10;99.90
23783;DHT22;12071;50.850;4.446;2022-08-16T00:15:50;22.30;99.90
23783;DHT22;12071;50.850;4.446;2022-08-16T00:18:17;22.30;99.90
23783;DHT22;12071;50.850;4.446;2022-08-16T00:20:44;22.30;99.90
23783;DHT22;12071;50.850;4.446;2022-08-16T00:23:11;22.20;99.90
23783;DHT22;12071;50.850;4.446;2022-08-16T00:25:37;22.00;99.90
23783;DHT22;12071;50.850;4.446;2022-08-16T00:28:04;21.90;99.90
23783;DHT22;12071;50.850;4.446;2022-08-16T00:30:30;21.60;1.00
23783;DHT22;12071;50.850;4.446;2022-08-16T00:32:58;21.70;1.00
23783;DHT22;12071;50.850;4.446;2022-08-16T00:35:28;21.60;1.00
23783;DHT22;12071;50.850;4.446;2022-08-16T00:37:54;21.80;1.00
23783;DHT22;12071;50.850;4.446;2022-08-16T00:40:41;21.70;1.00
23783;DHT22;12071;50.850;4.446;2022-08-16T00:43:23;21.80;1.00
23783;DHT22;12071;50.850;4.446;2022-08-16T00:46:13;21.60;1.00
23783;DHT22;12071;50.850;4.446;2022-08-16T00:48:42;21.70;1.00
23783;DHT22;12071;50.850;4.446;2022-08-16T00:51:09;21.90;1.00
23783;DHT22;12071;50.850;4.446;2022-08-16T00:53:35;22.00;99.90
23783;DHT22;12071;50.850;4.446;2022-08-16T00:56:05;22.00;99.90
23783;DHT22;12071;50.850;4.446;2022-08-16T00:58:32;21.90;99.90
23783;DHT22;12071;50.850;4.446;2022-08-16T01:00:58;21.70;1.00
23783;DHT22;12071;50.850;4.446;2022-08-16T01:03:26;21.30;1.00
23783;DHT22;12071;50.850;4.446;2022-08-16T01:05:53;21.10;1.00
23783;DHT22;12071;50.850;4.446;2022-08-16T01:08:21;21.10;1.00
23783;DHT22;12071;50.850;4.446;2022-08-16T01:10:47;21.30;1.00
23783;DHT22;12071;50.850;4.446;2022-08-16T01:13:22;21.40;1.00
23783;DHT22;12071;50.850;4.446;2022-08-16T01:18:25;21.50;1.00
23783;DHT22;12071;50.850;4.446;2022-08-16T01:21:00;21.30;1.00
23783;DHT22;12071;50.850;4.446;2022-08-16T01:26:14;21.40;1.00
23783;DHT22;12071;50.850;4.446;2022-08-16T01:28:40;21.50;1.00
23783;DHT22;12071;50.850;4.446;2022-08-16T01:31:07;21.50;1.00
23783;DHT22;12071;50.850;4.446;2022-08-16T01:33:35;21.40;1.00
23783;DHT22;12071;50.850;4.446;2022-08-16T01:36:08;21.30;1.00
23783;DHT22;12071;50.850;4.446;2022-08-16T01:38:37;21.40;1.00
23783;DHT22;12071;50.850;4.446;2022-08-16T01:41:07;21.50;1.00
23783;DHT22;12071;50.850;4.446;2022-08-16T01:43:35;21.60;1.00
23783;DHT22;12071;50.850;4.446;2022-08-16T01:46:04;21.60;99.90
23783;DHT22;12071;50.850;4.446;2022-08-16T01:48:31;21.50;99.90
23783;DHT22;12071;50.850;4.446;2022-08-16T01:50:59;21.30;1.00
23783;DHT22;12071;50.850;4.446;2022-08-16T01:53:26;21.20;1.00
23783;DHT22;12071;50.850;4.446;2022-08-16T01:55:52;21.20;1.00
23783;DHT22;12071;50.850;4.446;2022-08-16T01:58:18;21.10;1.00
23783;DHT22;12071;50.850;4.446;2022-08-16T02:00:45;21.20;1.00
23783;DHT22;12071;50.850;4.446;2022-08-16T02:03:12;21.20;1.00
23783;DHT22;12071;50.850;4.446;2022-08-16T02:05:39;21.10;1.00
23783;DHT22;12071;50.850;4.446;2022-08-16T02:08:05;21.00;1.00
23783;DHT22;12071;50.850;4.446;2022-08-16T02:10:33;21.00;1.00
23783;DHT22;12071;50.850;4.446;2022-08-16T02:12:59;21.00;1.00
23783;DHT22;12071;50.850;4.446;2022-08-16T02:15:27;20.90;1.00
23783;DHT22;12071;50.850;4.446;2022-08-16T02:17:55;20.80;1.00
23783;DHT22;12071;50.850;4.446;2022-08-16T02:20:21;20.80;1.00
23783;DHT22;12071;50.850;4.446;2022-08-16T02:22:47;20.80;1.00
23783;DHT22;12071;50.850;4.446;2022-08-16T02:25:15;20.80;1.00
23783;DHT22;12071;50.850;4.446;2022-08-16T02:27:43;21.00;1.00
23783;DHT22;12071;50.850;4.446;2022-08-16T02:30:13;20.90;1.00
23783;DHT22;12071;50.850;4.446;2022-08-16T02:32:40;20.90;1.00
23783;DHT22;12071;50.850;4.446;2022-08-16T02:35:06;20.80;1.00
23783;DHT22;12071;50.850;4.446;2022-08-16T02:37:32;20.70;1.00
23783;DHT22;12071;50.850;4.446;2022-08-16T02:39:58;20.80;1.00
23783;DHT22;12071;50.850;4.446;2022-08-16T02:42:24;20.60;1.00
23783;DHT22;12071;50.850;4.446;2022-08-16T02:44:49;20.80;1.00
23783;DHT22;12071;50.850;4.446;2022-08-16T02:47:15;20.70;1.00
23783;DHT22;12071;50.850;4.446;2022-08-16T02:49:41;20.50;1.00
23783;DHT22;12071;50.850;4.446;2022-08-16T02:52:08;20.60;1.00
23783;DHT22;12071;50.850;4.446;2022-08-16T02:54:35;20.60;1.00
23783;DHT22;12071;50.850;4.446;2022-08-16T02:57:00;20.50;1.00
23783;DHT22;12071;50.850;4.446;2022-08-16T02:59:26;20.60;1.00
23783;DHT22;12071;50.850;4.446;2022-08-16T03:01:52;20.70;1.00
23783;DHT22;12071;50.850;4.446;2022-08-16T03:04:17;20.70;1.00
23783;DHT22;12071;50.850;4.446;2022-08-16T03:06:43;20.70;1.00
23783;DHT22;12071;50.850;4.446;2022-08-16T03:09:09;20.60;1.00
23783;DHT22;12071;50.850;4.446;2022-08-16T03:11:35;20.50;1.00
23783;DHT22;12071;50.850;4.446;2022-08-16T03:14:01;20.60;1.00
23783;DHT22;12071;50.850;4.446;2022-08-16T03:16:28;20.60;1.00
23783;DHT22;12071;50.850;4.446;2022-08-16T03:18:55;20.40;1.00
23783;DHT22;12071;50.850;4.446;2022-08-16T03:21:21;20.40;1.00
23783;DHT22;12071;50.850;4.446;2022-08-16T03:23:47;20.40;1.00
23783;DHT22;12071;50.850;4.446;2022-08-16T03:26:12;20.40;1.00
23783;DHT22;12071;50.850;4.446;2022-08-16T03:28:39;20.30;1.00
23783;DHT22;12071;50.850;4.446;2022-08-16T03:31:05;20.30;1.00
23783;DHT22;12071;50.850;4.446;2022-08-16T03:33:32;20.30;1.00
23783;DHT22;12071;50.850;4.446;2022-08-16T03:35:58;20.20;1.00
23783;DHT22;12071;50.850;4.446;2022-08-16T03:38:25;20.20;1.00
23783;DHT22;12071;50.850;4.446;2022-08-16T03:40:51;20.30;1.00
23783;DHT22;12071;50.850;4.446;2022-08-16T03:43:17;20.20;1.00
23783;DHT22;12071;50.850;4.446;2022-08-16T03:45:43;20.20;1.00
23783;DHT22;12071;50.850;4.446;2022-08-16T03:48:09;20.10;1.00
23783;DHT22;12071;50.850;4.446;2022-08-16T03:50:36;20.00;1.00
23783;DHT22;12071;50.850;4.446;2022-08-16T03:53:03;20.00;1.00
23783;DHT22;12071;50.850;4.446;2022-08-16T03:55:29;20.00;1.00
23783;DHT22;12071;50.850;4.446;2022-08-16T03:57:55;20.10;1.00
23783;DHT22;12071;50.850;4.446;2022-08-16T04:00:24;20.20;1.00
23783;DHT22;12071;50.850;4.446;2022-08-16T04:02:52;20.10;1.00
23783;DHT22;12071;50.850;4.446;2022-08-16T04:05:18;20.10;1.00
23783;DHT22;12071;50.850;4.446;2022-08-16T04:07:44;20.10;1.00
23783;DHT22;12071;50.850;4.446;2022-08-16T04:10:11;20.10;1.00
23783;DHT22;12071;50.850;4.446;2022-08-16T04:12:39;20.00;1.00
23783;DHT22;12071;50.850;4.446;2022-08-16T04:15:07;20.10;1.00
23783;DHT22;12071;50.850;4.446;2022-08-16T04:17:33;20.10;1.00
23783;DHT22;12071;50.850;4.446;2022-08-16T04:19:58;20.10;1.00
23783;DHT22;12071;50.850;4.446;2022-08-16T04:22:25;20.10;1.00
23783;DHT22;12071;50.850;4.446;2022-08-16T04:24:51;20.20;1.00
23783;DHT22;12071;50.850;4.446;2022-08-16T04:27:16;20.30;1.00
23783;DHT22;12071;50.850;4.446;2022-08-16T04:29:42;20.20;1.00
23783;DHT22;12071;50.850;4.446;2022-08-16T04:32:08;20.30;1.00
23783;DHT22;12071;50.850;4.446;2022-08-16T04:34:35;20.20;1.00
23783;DHT22;12071;50.850;4.446;2022-08-16T04:37:02;20.30;1.00
23783;DHT22;12071;50.850;4.446;2022-08-16T04:39:30;20.30;1.00
23783;DHT22;12071;50.850;4.446;2022-08-16T04:41:56;20.10;1.00
23783;DHT22;12071;50.850;4.446;2022-08-16T04:44:21;20.10;1.00
23783;DHT22;12071;50.850;4.446;2022-08-16T04:46:47;20.10;1.00
23783;DHT22;12071;50.850;4.446;2022-08-16T04:49:13;20.10;1.00
23783;DHT22;12071;50.850;4.446;2022-08-16T04:51:39;20.20;1.00
23783;DHT22;12071;50.850;4.446;2022-08-16T04:54:08;20.20;1.00
23783;DHT22;12071;50.850;4.446;2022-08-16T04:56:35;20.30;1.00
23783;DHT22;12071;50.850;4.446;2022-08-16T04:59:01;20.40;1.00
23783;DHT22;12071;50.850;4.446;2022-08-16T05:01:27;20.30;1.00
23783;DHT22;12071;50.850;4.446;2022-08-16T05:03:52;20.40;1.00
23783;DHT22;12071;50.850;4.446;2022-08-16T05:06:18;20.40;1.00
23783;DHT22;12071;50.850;4.446;2022-08-16T05:08:44;20.60;1.00
23783;DHT22;12071;50.850;4.446;2022-08-16T05:11:11;20.60;1.00
23783;DHT22;12071;50.850;4.446;2022-08-16T05:13:40;20.60;1.00
23783;DHT22;12071;50.850;4.446;2022-08-16T05:16:06;20.50;1.00
23783;DHT22;12071;50.850;4.446;2022-08-16T05:18:35;20.30;1.00
23783;DHT22;12071;50.850;4.446;2022-08-16T05:21:01;20.20;1.00
23783;DHT22;12071;50.850;4.446;2022-08-16T05:23:26;20.40;1.00
23783;DHT22;12071;50.850;4.446;2022-08-16T05:25:52;20.40;1.00
23783;DHT22;12071;50.850;4.446;2022-08-16T05:28:18;20.70;1.00
23783;DHT22;12071;50.850;4.446;2022-08-16T05:30:44;20.80;1.00
23783;DHT22;12071;50.850;4.446;2022-08-16T05:33:10;20.60;1.00
23783;DHT22;12071;50.850;4.446;2022-08-16T05:35:36;20.70;1.00
23783;DHT22;12071;50.850;4.446;2022-08-16T05:38:01;20.60;1.00
23783;DHT22;12071;50.850;4.446;2022-08-16T05:40:27;20.70;1.00
23783;DHT22;12071;50.850;4.446;2022-08-16T05:42:53;20.80;1.00
23783;DHT22;12071;50.850;4.446;2022-08-16T05:45:19;21.00;99.90
23783;DHT22;12071;50.850;4.446;2022-08-16T05:47:44;21.10;99.90
23783;DHT22;12071;50.850;4.446;2022-08-16T05:50:10;21.10;99.90
23783;DHT22;12071;50.850;4.446;2022-08-16T05:52:36;20.90;99.90
23783;DHT22;12071;50.850;4.446;2022-08-16T05:55:03;20.70;1.00
23783;DHT22;12071;50.850;4.446;2022-08-16T05:57:29;20.70;1.00
23783;DHT22;12071;50.850;4.446;2022-08-16T05:59:55;20.70;1.00
23783;DHT22;12071;50.850;4.446;2022-08-16T06:02:20;20.90;99.90
23783;DHT22;12071;50.850;4.446;2022-08-16T06:04:49;20.90;1.00
23783;DHT22;12071;50.850;4.446;2022-08-16T06:07:15;20.70;1.00
23783;DHT22;12071;50.850;4.446;2022-08-16T06:09:40;20.80;1.00
23783;DHT22;12071;50.850;4.446;2022-08-16T06:12:06;21.00;1.00
23783;DHT22;12071;50.850;4.446;2022-08-16T06:14:32;21.00;99.90
23783;DHT22;12071;50.850;4.446;2022-08-16T06:16:58;21.30;99.90
23783;DHT22;12071;50.850;4.446;2022-08-16T06:19:23;21.20;99.90
23783;DHT22;12071;50.850;4.446;2022-08-16T06:21:49;21.50;99.90
23783;DHT22;12071;50.850;4.446;2022-08-16T06:24:14;21.50;99.90
23783;DHT22;12071;50.850;4.446;2022-08-16T06:26:40;21.60;99.90
23783;DHT22;12071;50.850;4.446;2022-08-16T06:29:06;21.70;99.90
23783;DHT22;12071;50.850;4.446;2022-08-16T06:31:32;21.60;99.90
23783;DHT22;12071;50.850;4.446;2022-08-16T06:33:57;21.70;99.90
23783;DHT22;12071;50.850;4.446;2022-08-16T06:36:23;21.70;99.90
23783;DHT22;12071;50.850;4.446;2022-08-16T06:38:51;22.00;99.90
23783;DHT22;12071;50.850;4.446;2022-08-16T06:41:17;21.90;99.90
23783;DHT22;12071;50.850;4.446;2022-08-16T06:43:42;22.10;99.90
23783;DHT22;12071;50.850;4.446;2022-08-16T06:46:33;22.40;99.90
23783;DHT22;12071;50.850;4.446;2022-08-16T06:49:00;22.10;99.90
23783;DHT22;12071;50.850;4.446;2022-08-16T06:51:26;22.00;99.90
23783;DHT22;12071;50.850;4.446;2022-08-16T06:53:51;22.30;99.90
23783;DHT22;12071;50.850;4.446;2022-08-16T06:56:17;22.10;99.90
23783;DHT22;12071;50.850;4.446;2022-08-16T06:58:43;22.10;99.90
23783;DHT22;12071;50.850;4.446;2022-08-16T07:01:08;22.10;99.90
23783;DHT22;12071;50.850;4.446;2022-08-16T07:03:34;22.50;99.90
23783;DHT22;12071;50.850;4.446;2022-08-16T07:06:00;22.20;99.90
23783;DHT22;12071;50.850;4.446;2022-08-16T07:08:26;22.10;99.90
23783;DHT22;12071;50.850;4.446;2022-08-16T07:10:52;22.20;99.90
23783;DHT22;12071;50.850;4.446;2022-08-16T07:13:18;22.50;99.90
23783;DHT22;12071;50.850;4.446;2022-08-16T07:15:43;22.40;99.90
23783;DHT22;12071;50.850;4.446;2022-08-16T07:18:09;22.70;99.90
23783;DHT22;12071;50.850;4.446;2022-08-16T07:20:39;22.90;66.60
23783;DHT22;12071;50.850;4.446;2022-08-16T07:23:05;23.10;20.50
23783;DHT22;12071;50.850;4.446;2022-08-16T07:25:32;23.30;1.00
23783;DHT22;12071;50.850;4.446;2022-08-16T07:27:58;23.40;1.00
23783;DHT22;12071;50.850;4.446;2022-08-16T07:30:24;23.70;1.00
23783;DHT22;12071;50.850;4.446;2022-08-16T07:32:50;23.80;1.00
23783;DHT22;12071;50.850;4.446;2022-08-16T07:35:17;23.90;99.90
23783;DHT22;12071;50.850;4.446;2022-08-16T07:37:43;24.00;99.90
23783;DHT22;12071;50.850;4.446;2022-08-16T07:40:10;24.00;99.90
23783;DHT22;12071;50.850;4.446;2022-08-16T07:42:36;24.10;99.90
23783;DHT22;12071;50.850;4.446;2022-08-16T07:45:03;24.20;99.90
23783;DHT22;12071;50.850;4.446;2022-08-16T07:47:29;24.50;99.90
23783;DHT22;12071;50.850;4.446;2022-08-16T07:49:55;24.60;1.00
23783;DHT22;12071;50.850;4.446;2022-08-16T07:52:21;24.60;99.90
23783;DHT22;12071;50.850;4.446;2022-08-16T07:54:47;24.70;99.90
23783;DHT22;12071;50.850;4.446;2022-08-16T07:57:13;24.50;1.00
23783;DHT22;12071;50.850;4.446;2022-08-16T07:59:38;24.30;1.00
23783;DHT22;12071;50.850;4.446;2022-08-16T08:02:04;24.50;1.00
23783;DHT22;12071;50.850;4.446;2022-08-16T08:04:30;24.30;99.90
23783;DHT22;12071;50.850;4.446;2022-08-16T08:06:58;24.40;99.90
23783;DHT22;12071;50.850;4.446;2022-08-16T08:09:24;24.60;99.90
23783;DHT22;12071;50.850;4.446;2022-08-16T08:11:50;25.00;99.90
23783;DHT22;12071;50.850;4.446;2022-08-16T08:14:16;25.10;16.70
23783;DHT22;12071;50.850;4.446;2022-08-16T08:16:42;25.30;1.00
23783;DHT22;12071;50.850;4.446;2022-08-16T08:19:08;25.30;1.00
23783;DHT22;12071;50.850;4.446;2022-08-16T08:21:37;25.10;1.00
23783;DHT22;12071;50.850;4.446;2022-08-16T08:24:08;25.00;99.90
23783;DHT22;12071;50.850;4.446;2022-08-16T08:26:34;24.70;99.90
23783;DHT22;12071;50.850;4.446;2022-08-16T08:29:00;24.80;99.10
23783;DHT22;12071;50.850;4.446;2022-08-16T08:31:26;25.20;36.00
23783;DHT22;12071;50.850;4.446;2022-08-16T08:33:52;25.40;99.90
23783;DHT22;12071;50.850;4.446;2022-08-16T08:36:29;25.20;99.90
23783;DHT22;12071;50.850;4.446;2022-08-16T08:38:56;25.00;99.90
23783;DHT22;12071;50.850;4.446;2022-08-16T08:41:22;25.40;1.00
23783;DHT22;12071;50.850;4.446;2022-08-16T08:43:48;25.90;1.00
23783;DHT22;12071;50.850;4.446;2022-08-16T08:46:14;26.10;99.90
23783;DHT22;12071;50.850;4.446;2022-08-16T08:48:40;26.10;1.00
23783;DHT22;12071;50.850;4.446;2022-08-16T08:51:07;26.10;1.00
23783;DHT22;12071;50.850;4.446;2022-08-16T08:53:34;25.80;1.00
23783;DHT22;12071;50.850;4.446;2022-08-16T08:56:02;25.80;9.60
23783;DHT22;12071;50.850;4.446;2022-08-16T08:58:28;25.90;99.90
23783;DHT22;12071;50.850;4.446;2022-08-16T09:00:54;26.20;99.90
23783;DHT22;12071;50.850;4.446;2022-08-16T09:03:21;26.40;99.90
23783;DHT22;12071;50.850;4.446;2022-08-16T09:05:46;26.50;99.90
23783;DHT22;12071;50.850;4.446;2022-08-16T09:08:13;26.50;99.90
23783;DHT22;12071;50.850;4.446;2022-08-16T09:10:39;26.50;99.90
23783;DHT22;12071;50.850;4.446;2022-08-16T09:13:05;26.60;1.00
23783;DHT22;12071;50.850;4.446;2022-08-16T09:15:30;26.40;55.30
23783;DHT22;12071;50.850;4.446;2022-08-16T09:17:56;26.10;99.90
23783;DHT22;12071;50.850;4.446;2022-08-16T09:20:23;26.10;99.90
23783;DHT22;12071;50.850;4.446;2022-08-16T09:22:50;26.30;21.40
23783;DHT22;12071;50.850;4.446;2022-08-16T09:25:16;26.70;99.90
23783;DHT22;12071;50.850;4.446;2022-08-16T09:27:42;26.90;99.90
23783;DHT22;12071;50.850;4.446;2022-08-16T09:30:08;26.80;99.90
23783;DHT22;12071;50.850;4.446;2022-08-16T09:32:34;26.70;99.90
23783;DHT22;12071;50.850;4.446;2022-08-16T09:35:01;26.60;1.00
23783;DHT22;12071;50.850;4.446;2022-08-16T09:37:28;27.00;99.90
23783;DHT22;12071;50.850;4.446;2022-08-16T09:39:55;26.90;99.90
23783;DHT22;12071;50.850;4.446;2022-08-16T09:42:21;26.50;1.00
23783;DHT22;12071;50.850;4.446;2022-08-16T09:44:46;26.60;99.90
23783;DHT22;12071;50.850;4.446;2022-08-16T09:47:12;26.20;1.00
23783;DHT22;12071;50.850;4.446;2022-08-16T09:49:38;26.10;1.00
23783;DHT22;12071;50.850;4.446;2022-08-16T09:52:04;26.60;99.90
23783;DHT22;12071;50.850;4.446;2022-08-16T09:54:30;26.70;76.40
23783;DHT22;12071;50.850;4.446;2022-08-16T09:56:56;26.80;23.40
23783;DHT22;12071;50.850;4.446;2022-08-16T09:59:23;26.90;99.90
23783;DHT22;12071;50.850;4.446;2022-08-16T10:01:50;27.00;1.00
23783;DHT22;12071;50.850;4.446;2022-08-16T10:04:17;27.30;1.00
23783;DHT22;12071;50.850;4.446;2022-08-16T10:06:43;27.50;97.40
23783;DHT22;12071;50.850;4.446;2022-08-16T10:09:11;27.10;99.90
23783;DHT22;12071;50.850;4.446;2022-08-16T10:11:37;26.90;1.00
23783;DHT22;12071;50.850;4.446;2022-08-16T10:14:22;26.80;99.90
23783;DHT22;12071;50.850;4.446;2022-08-16T10:16:48;27.10;1.00
23783;DHT22;12071;50.850;4.446;2022-08-16T10:19:15;27.40;1.00
23783;DHT22;12071;50.850;4.446;2022-08-16T10:21:41;27.60;99.90
23783;DHT22;12071;50.850;4.446;2022-08-16T10:24:07;27.70;99.90
23783;DHT22;12071;50.850;4.446;2022-08-16T10:26:34;27.60;99.90
23783;DHT22;12071;50.850;4.446;2022-08-16T10:29:00;27.50;1.00
23783;DHT22;12071;50.850;4.446;2022-08-16T10:31:27;27.50;99.90
23783;DHT22;12071;50.850;4.446;2022-08-16T10:33:52;27.20;99.90
23783;DHT22;12071;50.850;4.446;2022-08-16T10:36:18;26.80;99.90
23783;DHT22;12071;50.850;4.446;2022-08-16T10:38:44;26.70;67.30
23783;DHT22;12071;50.850;4.446;2022-08-16T10:41:11;27.00;1.00
23783;DHT22;12071;50.850;4.446;2022-08-16T10:43:38;27.30;99.90
23783;DHT22;12071;50.850;4.446;2022-08-16T10:46:07;27.40;1.00
23783;DHT22;12071;50.850;4.446;2022-08-16T10:48:33;27.30;1.00
23783;DHT22;12071;50.850;4.446;2022-08-16T10:51:00;27.40;1.00
23783;DHT22;12071;50.850;4.446;2022-08-16T10:53:27;27.70;99.90
23783;DHT22;12071;50.850;4.446;2022-08-16T10:55:53;27.80;99.90
23783;DHT22;12071;50.850;4.446;2022-08-16T10:58:19;28.00;99.90
23783;DHT22;12071;50.850;4.446;2022-08-16T11:00:45;28.30;1.00
23783;DHT22;12071;50.850;4.446;2022-08-16T11:03:11;27.70;99.90
23783;DHT22;12071;50.850;4.446;2022-08-16T11:05:38;27.40;99.90
23783;DHT22;12071;50.850;4.446;2022-08-16T11:08:05;27.40;99.90
23783;DHT22;12071;50.850;4.446;2022-08-16T11:10:35;27.50;94.30
23783;DHT22;12071;50.850;4.446;2022-08-16T11:13:02;27.80;99.90
23783;DHT22;12071;50.850;4.446;2022-08-16T11:15:28;27.80;1.00
23783;DHT22;12071;50.850;4.446;2022-08-16T11:17:55;27.50;72.10
23783;DHT22;12071;50.850;4.446;2022-08-16T11:20:21;27.40;99.90
23783;DHT22;12071;50.850;4.446;2022-08-16T11:22:48;27.60;99.90
23783;DHT22;12071;50.850;4.446;2022-08-16T11:25:17;27.60;99.90
23783;DHT22;12071;50.850;4.446;2022-08-16T11:27:43;28.00;99.90
23783;DHT22;12071;50.850;4.446;2022-08-16T11:30:10;28.60;1.00
23783;DHT22;12071;50.850;4.446;2022-08-16T11:32:36;28.90;99.90
23783;DHT22;12071;50.850;4.446;2022-08-16T11:35:07;28.90;99.90
23783;DHT22;12071;50.850;4.446;2022-08-16T11:37:34;29.20;99.90
23783;DHT22;12071;50.850;4.446;2022-08-16T11:40:03;28.90;99.90
23783;DHT22;12071;50.850;4.446;2022-08-16T11:42:29;28.90;1.00
23783;DHT22;12071;50.850;4.446;2022-08-16T11:44:54;29.20;99.90
23783;DHT22;12071;50.850;4.446;2022-08-16T11:47:20;28.90;99.90
23783;DHT22;12071;50.850;4.446;2022-08-16T11:49:46;29.00;99.90
23783;DHT22;12071;50.850;4.446;2022-08-16T11:52:11;28.30;99.90
23783;DHT22;12071;50.850;4.446;2022-08-16T11:54:37;28.20;1.00
23783;DHT22;12071;50.850;4.446;2022-08-16T11:57:04;28.40;1.00
23783;DHT22;12071;50.850;4.446;2022-08-16T11:59:30;28.60;1.00
23783;DHT22;12071;50.850;4.446;2022-08-16T12:01:57;29.10;1.00
23783;DHT22;12071;50.850;4.446;2022-08-16T12:04:23;28.70;99.90
23783;DHT22;12071;50.850;4.446;2022-08-16T12:06:50;28.70;26.60
23783;DHT22;12071;50.850;4.446;2022-08-16T12:09:16;28.90;99.90
23783;DHT22;12071;50.850;4.446;2022-08-16T12:11:42;29.20;99.90
23783;DHT22;12071;50.850;4.446;2022-08-16T12:14:08;29.20;1.00
23783;DHT22;12071;50.850;4.446;2022-08-16T12:16:34;29.10;86.70
23783;DHT22;12071;50.850;4.446;2022-08-16T12:19:04;29.30;1.00
23783;DHT22;12071;50.850;4.446;2022-08-16T12:21:31;29.10;1.00
23783;DHT22;12071;50.850;4.446;2022-08-16T12:23:57;28.70;99.90
23783;DHT22;12071;50.850;4.446;2022-08-16T12:26:22;28.60;99.90
23783;DHT22;12071;50.850;4.446;2022-08-16T12:28:48;28.90;99.90
23783;DHT22;12071;50.850;4.446;2022-08-16T12:31:18;29.50;1.00
23783;DHT22;12071;50.850;4.446;2022-08-16T12:33:44;29.30;1.00
23783;DHT22;12071;50.850;4.446;2022-08-16T12:36:10;29.40;1.00
23783;DHT22;12071;50.850;4.446;2022-08-16T12:38:36;29.50;99.90
23783;DHT22;12071;50.850;4.446;2022-08-16T12:41:02;29.80;99.90
23783;DHT22;12071;50.850;4.446;2022-08-16T12:43:28;30.10;99.90
23783;DHT22;12071;50.850;4.446;2022-08-16T12:45:56;30.30;96.20
23783;DHT22;12071;50.850;4.446;2022-08-16T12:48:26;29.80;99.90
23783;DHT22;12071;50.850;4.446;2022-08-16T12:51:14;29.50;99.90
23783;DHT22;12071;50.850;4.446;2022-08-16T12:53:40;29.70;99.90
23783;DHT22;12071;50.850;4.446;2022-08-16T12:56:07;30.20;99.90
23783;DHT22;12071;50.850;4.446;2022-08-16T12:58:36;30.40;90.70
23783;DHT22;12071;50.850;4.446;2022-08-16T13:01:02;30.10;49.10
23783;DHT22;12071;50.850;4.446;2022-08-16T13:03:28;30.10;99.90
23783;DHT22;12071;50.850;4.446;2022-08-16T13:05:54;30.00;99.90
23783;DHT22;12071;50.850;4.446;2022-08-16T13:08:20;29.60;99.90
23783;DHT22;12071;50.850;4.446;2022-08-16T13:10:47;29.90;99.90
23783;DHT22;12071;50.850;4.446;2022-08-16T13:13:18;30.30;1.00
23783;DHT22;12071;50.850;4.446;2022-08-16T13:15:53;30.90;1.00
23783;DHT22;12071;50.850;4.446;2022-08-16T13:18:19;31.20;1.00
23783;DHT22;12071;50.850;4.446;2022-08-16T13:20:45;31.60;99.90
23783;DHT22;12071;50.850;4.446;2022-08-16T13:23:12;31.90;99.90
23783;DHT22;12071;50.850;4.446;2022-08-16T13:25:41;31.20;1.00
23783;DHT22;12071;50.850;4.446;2022-08-16T13:28:09;30.70;1.00
23783;DHT22;12071;50.850;4.446;2022-08-16T13:30:39;30.40;1.00
23783;DHT22;12071;50.850;4.446;2022-08-16T13:33:06;30.40;1.00
23783;DHT22;12071;50.850;4.446;2022-08-16T13:35:32;30.70;1.00
23783;DHT22;12071;50.850;4.446;2022-08-16T13:37:58;30.40;1.00
23783;DHT22;12071;50.850;4.446;2022-08-16T13:40:24;30.50;1.00
23783;DHT22;12071;50.850;4.446;2022-08-16T13:42:52;30.70;1.00
23783;DHT22;12071;50.850;4.446;2022-08-16T13:45:19;31.30;99.90
23783;DHT22;12071;50.850;4.446;2022-08-16T13:47:45;31.80;99.90
23783;DHT22;12071;50.850;4.446;2022-08-16T13:50:14;31.60;99.90
23783;DHT22;12071;50.850;4.446;2022-08-16T13:52:40;31.50;99.90
23783;DHT22;12071;50.850;4.446;2022-08-16T13:55:07;30.50;1.00
23783;DHT22;12071;50.850;4.446;2022-08-16T13:57:34;30.90;99.90
23783;DHT22;12071;50.850;4.446;2022-08-16T13:59:59;30.90;99.90
23783;DHT22;12071;50.850;4.446;2022-08-16T14:02:26;30.50;99.90
23783;DHT22;12071;50.850;4.446;2022-08-16T14:04:51;30.70;1.00
23783;DHT22;12071;50.850;4.446;2022-08-16T14:07:17;31.40;99.90
23783;DHT22;12071;50.850;4.446;2022-08-16T14:09:43;31.80;99.90
23783;DHT22;12071;50.850;4.446;2022-08-16T14:12:24;31.40;99.90
23783;DHT22;12071;50.850;4.446;2022-08-16T14:14:50;31.30;99.90
23783;DHT22;12071;50.850;4.446;2022-08-16T14:17:17;31.40;99.90
23783;DHT22;12071;50.850;4.446;2022-08-16T14:19:43;31.70;99.90
23783;DHT22;12071;50.850;4.446;2022-08-16T14:22:09;32.00;99.90
23783;DHT22;12071;50.850;4.446;2022-08-16T14:24:39;31.60;99.90
23783;DHT22;12071;50.850;4.446;2022-08-16T14:27:05;31.40;99.90
23783;DHT22;12071;50.850;4.446;2022-08-16T14:29:31;31.50;99.90
23783;DHT22;12071;50.850;4.446;2022-08-16T14:32:04;31.30;99.90
23783;DHT22;12071;50.850;4.446;2022-08-16T14:34:30;31.50;99.90
23783;DHT22;12071;50.850;4.446;2022-08-16T14:36:56;31.50;99.90
23783;DHT22;12071;50.850;4.446;2022-08-16T14:39:22;31.70;99.90
23783;DHT22;12071;50.850;4.446;2022-08-16T14:41:48;31.50;99.90
23783;DHT22;12071;50.850;4.446;2022-08-16T14:44:14;31.60;99.90
23783;DHT22;12071;50.850;4.446;2022-08-16T14:46:40;32.20;99.90
23783;DHT22;12071;50.850;4.446;2022-08-16T14:49:05;32.20;99.90
23783;DHT22;12071;50.850;4.446;2022-08-16T14:51:31;31.70;99.90
23783;DHT22;12071;50.850;4.446;2022-08-16T14:53:56;31.60;99.90
23783;DHT22;12071;50.850;4.446;2022-08-16T14:56:25;31.70;99.90
23783;DHT22;12071;50.850;4.446;2022-08-16T14:58:51;32.20;99.90
23783;DHT22;12071;50.850;4.446;2022-08-16T15:01:17;32.30;99.90
23783;DHT22;12071;50.850;4.446;2022-08-16T15:03:42;32.70;99.90
23783;DHT22;12071;50.850;4.446;2022-08-16T15:06:08;34.40;29.90
23783;DHT22;12071;50.850;4.446;2022-08-16T15:08:33;35.70;1.00
23783;DHT22;12071;50.850;4.446;2022-08-16T15:11:00;34.60;1.00
23783;DHT22;12071;50.850;4.446;2022-08-16T15:13:26;34.50;1.00
23783;DHT22;12071;50.850;4.446;2022-08-16T15:15:51;34.40;1.00
23783;DHT22;12071;50.850;4.446;2022-08-16T15:18:18;34.00;1.00
23783;DHT22;12071;50.850;4.446;2022-08-16T15:20:44;33.00;24.40
23783;DHT22;12071;50.850;4.446;2022-08-16T15:23:10;32.00;94.00
23783;DHT22;12071;50.850;4.446;2022-08-16T15:25:40;32.80;60.20
23783;DHT22;12071;50.850;4.446;2022-08-16T15:28:07;33.40;21.20
23783;DHT22;12071;50.850;4.446;2022-08-16T15:30:35;33.10;16.60
23783;DHT22;12071;50.850;4.446;2022-08-16T15:33:07;32.10;90.80
23783;DHT22;12071;50.850;4.446;2022-08-16T15:35:33;31.40;99.90
23783;DHT22;12071;50.850;4.446;2022-08-16T15:38:01;31.30;99.90
23783;DHT22;12071;50.850;4.446;2022-08-16T15:40:27;31.50;99.90